Time;durP1;ratioP1;P1;durP2;ratioP2;P2;SDS_P1;SDS_P2;PMS_P1;PMS_P2;Temp;Humidity;BMP_temperature;BMP_pressure;BME280_temperature;BME280_humidity;BME280_pressure;Samples;Min_cycle;Max_cycle;Signal;HPM_P1;HPM_P2
2021/12/14 00:02:12;;;;;;;22.98;13.27;;;;;;;;;;4960090;28;20113;-69
2021/12/14 00:05:01;;;;;;;25.48;14.73;;;;;;;;;;4956038;28;20101;-68
2021/12/14 00:07:46;;;;;;;20.73;12.52;;;;;;;;;;4938535;28;20069;-66
2021/12/14 00:16:09;;;;;;;24.63;14.68;;;;;;;;;;4947771;28;20043;-77
2021/12/14 00:18:54;;;;;;;24.35;14.40;;;;;;;;;;4927103;28;20040;-76
2021/12/14 00:21:43;;;;;;;22.52;12.55;;;;;;;;;;4942233;28;20023;-77
2021/12/14 00:24:29;;;;;;;24.50;13.70;;;;;;;;;;4965454;28;20109;-70
2021/12/14 00:27:18;;;;;;;27.02;12.82;;;;;;;;;;4944691;28;20075;-68
2021/12/14 00:30:04;;;;;;;22.67;14.00;;;;;;;;;;4956729;28;20538;-69
2021/12/14 00:32:50;;;;;;;23.45;13.25;;;;;;;;;;4947539;28;20045;-70
2021/12/14 00:35:35;;;;;;;25.00;12.73;;;;;;;;;;4981949;28;20134;-68
2021/12/14 00:38:22;;;;;;;20.27;11.82;;;;;;;;;;4939466;28;20046;-68
2021/12/14 00:41:12;;;;;;;20.45;12.02;;;;;;;;;;4936868;28;20117;-68
2021/12/14 00:43:57;;;;;;;25.20;12.15;;;;;;;;;;4944952;28;20082;-70
2021/12/14 00:46:43;;;;;;;24.48;12.68;;;;;;;;;;4930801;29;20439;-69
2021/12/14 00:49:28;;;;;;;19.95;11.57;;;;;;;;;;4952507;28;20027;-70
2021/12/14 00:52:13;;;;;;;21.38;11.45;;;;;;;;;;4929783;28;20087;-67
2021/12/14 00:54:59;;;;;;;26.38;12.95;;;;;;;;;;4934121;28;20035;-67
2021/12/14 00:57:44;;;;;;;25.38;13.35;;;;;;;;;;4953559;28;20121;-68
2021/12/14 01:00:31;;;;;;;22.60;11.02;;;;;;;;;;4953280;28;20379;-68
2021/12/14 01:03:17;;;;;;;22.17;12.48;;;;;;;;;;4962841;28;20119;-76
2021/12/14 01:06:03;;;;;;;22.15;11.80;;;;;;;;;;4971446;28;20691;-76
2021/12/14 01:08:49;;;;;;;21.30;11.77;;;;;;;;;;4950072;28;20045;-76
2021/12/14 01:11:39;;;;;;;21.15;12.15;;;;;;;;;;4979220;28;20373;-76
2021/12/14 01:14:30;;;;;;;20.30;11.48;;;;;;;;;;4958082;28;20022;-77
2021/12/14 01:20:30;;;;;;;49.45;13.63;;;;;;;;;;4964512;28;20387;-67
2021/12/14 01:23:25;;;;;;;18.88;10.02;;;;;;;;;;4954882;28;20613;-69
2021/12/14 01:26:14;;;;;;;22.35;11.93;;;;;;;;;;4949986;28;20371;-68
2021/12/14 01:29:00;;;;;;;21.25;12.05;;;;;;;;;;4970208;28;20551;-68
2021/12/14 01:31:47;;;;;;;22.83;11.27;;;;;;;;;;4960037;28;20062;-69
2021/12/14 01:34:35;;;;;;;20.70;11.65;;;;;;;;;;4943460;28;20119;-68
2021/12/14 01:37:24;;;;;;;18.42;9.55;;;;;;;;;;4947029;28;20036;-70
2021/12/14 01:40:18;;;;;;;19.85;10.48;;;;;;;;;;4941252;28;20065;-66
2021/12/14 01:43:04;;;;;;;18.85;10.73;;;;;;;;;;4943875;28;20043;-71
2021/12/14 01:45:49;;;;;;;22.33;10.98;;;;;;;;;;4946614;28;20137;-70
2021/12/14 01:48:35;;;;;;;21.05;10.13;;;;;;;;;;4926741;28;20034;-69
2021/12/14 01:51:20;;;;;;;19.48;11.13;;;;;;;;;;4926606;29;20083;-69
2021/12/14 01:54:07;;;;;;;21.65;11.35;;;;;;;;;;4907533;29;20035;-72
2021/12/14 01:56:52;;;;;;;21.98;10.93;;;;;;;;;;4922397;28;20069;-70
2021/12/14 01:59:39;;;;;;;19.45;9.50;;;;;;;;;;4926186;29;20027;-75
2021/12/14 02:02:32;;;;;;;21.75;11.40;;;;;;;;;;4929498;28;20558;-66
2021/12/14 02:05:26;;;;;;;20.73;10.48;;;;;;;;;;4904833;29;20373;-66
2021/12/14 02:08:38;;;;;;;19.73;10.35;;;;;;;;;;4922462;29;20044;-65
2021/12/14 02:11:25;;;;;;;19.25;9.75;;;;;;;;;;4888694;29;20439;-69
2021/12/14 02:14:13;;;;;;;18.75;10.52;;;;;;;;;;4871988;29;20040;-67
2021/12/14 02:17:00;;;;;;;17.92;10.27;;;;;;;;;;4927315;28;20414;-68
2021/12/14 02:19:45;;;;;;;23.65;10.32;;;;;;;;;;4945464;28;20044;-69
2021/12/14 02:22:31;;;;;;;19.25;10.02;;;;;;;;;;4907785;29;20483;-67
2021/12/14 02:25:21;;;;;;;20.83;10.15;;;;;;;;;;4903389;29;20574;-66
2021/12/14 02:28:11;;;;;;;22.63;10.75;;;;;;;;;;4919715;29;20035;-68
2021/12/14 02:30:57;;;;;;;24.40;11.75;;;;;;;;;;4914724;29;20065;-69
2021/12/14 02:33:44;;;;;;;22.00;11.38;;;;;;;;;;4890790;28;20036;-68
2021/12/14 02:36:31;;;;;;;23.50;12.93;;;;;;;;;;4924427;29;20427;-76
2021/12/14 02:42:24;;;;;;;23.83;11.32;;;;;;;;;;4845986;29;20038;-68
2021/12/14 02:45:09;;;;;;;23.98;11.88;;;;;;;;;;4827177;29;20555;-69
2021/12/14 02:47:55;;;;;;;23.35;12.68;;;;;;;;;;4895404;29;20025;-68
2021/12/14 02:50:40;;;;;;;22.98;11.77;;;;;;;;;;4886197;29;20476;-69
2021/12/14 02:53:26;;;;;;;21.73;10.73;;;;;;;;;;4870554;29;20376;-71
2021/12/14 02:56:13;;;;;;;24.55;11.95;;;;;;;;;;4843912;29;20044;-69
2021/12/14 02:59:00;;;;;;;23.20;12.52;;;;;;;;;;4867447;29;20597;-70
2021/12/14 03:01:47;;;;;;;21.48;11.65;;;;;;;;;;4845556;29;20059;-69
2021/12/14 03:04:39;;;;;;;18.58;10.00;;;;;;;;;;4864792;29;20039;-70
2021/12/14 03:07:27;;;;;;;25.20;12.20;;;;;;;;;;4869341;29;20044;-69
2021/12/14 03:10:32;;;;;;;19.98;10.75;;;;;;;;;;4900668;29;20103;-77
2021/12/14 03:13:18;;;;;;;20.00;11.32;;;;;;;;;;4865089;29;20394;-69
2021/12/14 03:16:06;;;;;;;20.23;10.55;;;;;;;;;;4870969;29;20076;-71
2021/12/14 03:18:54;;;;;;;24.27;11.30;;;;;;;;;;4872217;29;20076;-70
2021/12/14 03:21:45;;;;;;;26.25;12.45;;;;;;;;;;4923912;28;20023;-71
2021/12/14 03:24:30;;;;;;;22.35;11.68;;;;;;;;;;4931688;28;20395;-70
2021/12/14 03:27:16;;;;;;;19.30;9.80;;;;;;;;;;4927047;29;20401;-70
2021/12/14 03:30:02;;;;;;;20.25;11.60;;;;;;;;;;4960205;28;20031;-71
2021/12/14 03:32:47;;;;;;;20.83;11.30;;;;;;;;;;4930978;29;20083;-68
2021/12/14 03:35:41;;;;;;;21.08;10.45;;;;;;;;;;4885444;29;20035;-67
2021/12/14 03:38:32;;;;;;;21.77;10.57;;;;;;;;;;4875384;29;20036;-68
2021/12/14 03:41:23;;;;;;;20.60;10.18;;;;;;;;;;4892695;29;20019;-67
2021/12/14 03:44:28;;;;;;;18.88;10.57;;;;;;;;;;4936171;29;20561;-67
2021/12/14 03:47:22;;;;;;;19.35;9.43;;;;;;;;;;4942834;28;20046;-69
2021/12/14 03:50:09;;;;;;;19.38;9.45;;;;;;;;;;4986611;28;20030;-68
2021/12/14 03:52:55;;;;;;;20.02;10.25;;;;;;;;;;4985193;28;20062;-72
2021/12/14 03:55:52;;;;;;;14.50;8.35;;;;;;;;;;4951040;28;20039;-68
2021/12/14 03:58:39;;;;;;;16.50;8.02;;;;;;;;;;4945316;28;20433;-68
2021/12/14 04:01:29;;;;;;;19.15;9.50;;;;;;;;;;4950563;28;20054;-68
2021/12/14 04:04:21;;;;;;;15.00;8.43;;;;;;;;;;4917744;28;21558;-68
2021/12/14 04:07:09;;;;;;;20.00;9.30;;;;;;;;;;4934477;28;20486;-76
2021/12/14 04:09:54;;;;;;;14.60;7.45;;;;;;;;;;4914951;29;20036;-69
2021/12/14 04:12:40;;;;;;;14.15;8.18;;;;;;;;;;4915872;28;20089;-68
2021/12/14 04:15:25;;;;;;;13.80;6.90;;;;;;;;;;4948002;28;20586;-71
2021/12/14 04:18:11;;;;;;;12.85;7.50;;;;;;;;;;4947151;28;20548;-70
2021/12/14 04:20:56;;;;;;;12.00;6.50;;;;;;;;;;4938888;28;20046;-70
2021/12/14 04:23:44;;;;;;;12.73;6.43;;;;;;;;;;4920313;28;20074;-71
2021/12/14 04:26:29;;;;;;;12.20;6.25;;;;;;;;;;4942218;28;20111;-71
2021/12/14 04:29:14;;;;;;;10.18;5.53;;;;;;;;;;4945599;28;20055;-72
2021/12/14 04:32:00;;;;;;;9.85;5.88;;;;;;;;;;4936510;28;20070;-72
2021/12/14 04:34:46;;;;;;;8.35;5.05;;;;;;;;;;4929470;29;20086;-74
2021/12/14 04:37:37;;;;;;;9.98;5.95;;;;;;;;;;4937370;28;20042;-74
2021/12/14 04:52:33;;;;;;;7.03;4.40;;;;;;;;;;4920124;28;20039;-65
2021/12/14 04:55:18;;;;;;;9.63;5.53;;;;;;;;;;4929401;29;20371;-66
2021/12/14 04:58:04;;;;;;;9.52;5.47;;;;;;;;;;4899191;29;20484;-65
2021/12/14 05:00:50;;;;;;;8.23;5.15;;;;;;;;;;4893658;29;20058;-66
2021/12/14 05:03:41;;;;;;;10.15;5.63;;;;;;;;;;4959083;28;20371;-70
2021/12/14 05:06:33;;;;;;;8.88;5.22;;;;;;;;;;4925068;28;20027;-73
2021/12/14 05:12:06;;;;;;;9.05;5.20;;;;;;;;;;4936881;28;20033;-73
2021/12/14 05:14:51;;;;;;;8.23;5.13;;;;;;;;;;4929664;28;20572;-71
2021/12/14 05:17:38;;;;;;;9.25;5.32;;;;;;;;;;4947307;28;20061;-72
2021/12/14 05:20:23;;;;;;;8.43;5.15;;;;;;;;;;4972505;28;20041;-65
2021/12/14 05:23:09;;;;;;;9.23;5.72;;;;;;;;;;4942886;28;20040;-74
2021/12/14 05:25:54;;;;;;;8.38;4.43;;;;;;;;;;4922517;29;20058;-72
2021/12/14 05:28:41;;;;;;;9.68;6.00;;;;;;;;;;4930682;28;20031;-72
2021/12/14 05:31:27;;;;;;;10.80;6.10;;;;;;;;;;4927063;28;20031;-74
2021/12/14 05:34:12;;;;;;;10.27;6.60;;;;;;;;;;4919429;29;20031;-71
2021/12/14 05:36:59;;;;;;;8.25;5.85;;;;;;;;;;4923271;29;20038;-72
2021/12/14 05:45:38;;;;;;;8.52;5.47;;;;;;;;;;4894893;29;20034;-67
2021/12/14 05:48:26;;;;;;;10.73;5.20;;;;;;;;;;4887892;29;20040;-67
2021/12/14 05:51:11;;;;;;;10.43;6.35;;;;;;;;;;4923538;29;20039;-67
2021/12/14 05:53:57;;;;;;;9.85;5.72;;;;;;;;;;4941801;28;20049;-67
2021/12/14 05:56:42;;;;;;;8.63;5.60;;;;;;;;;;4933220;29;20103;-74
2021/12/14 05:59:29;;;;;;;69.32;50.63;;;;;;;;;;4907829;29;20043;-74
2021/12/14 06:02:14;;;;;;;13.30;9.30;;;;;;;;;;4945655;28;20046;-75
2021/12/14 06:04:59;;;;;;;8.27;5.40;;;;;;;;;;4893363;29;20357;-76
2021/12/14 06:07:45;;;;;;;9.35;5.68;;;;;;;;;;4902112;29;20036;-76
2021/12/14 06:10:31;;;;;;;9.10;5.35;;;;;;;;;;4880876;28;20046;-76
2021/12/14 06:13:18;;;;;;;8.57;4.97;;;;;;;;;;4869069;29;20093;-78
2021/12/14 06:16:03;;;;;;;7.35;4.95;;;;;;;;;;4866001;29;20032;-68
2021/12/14 06:18:48;;;;;;;9.40;5.20;;;;;;;;;;4906357;29;20068;-75
2021/12/14 06:21:33;;;;;;;8.13;5.03;;;;;;;;;;4909438;28;20031;-78
2021/12/14 06:24:20;;;;;;;9.68;5.05;;;;;;;;;;4908057;29;20047;-78
2021/12/14 06:27:08;;;;;;;8.10;5.10;;;;;;;;;;4849138;29;20041;-76
2021/12/14 06:30:02;;;;;;;7.78;4.63;;;;;;;;;;4854483;29;20121;-77
2021/12/14 06:32:53;;;;;;;6.50;3.95;;;;;;;;;;4883957;29;20098;-70
2021/12/14 06:35:41;;;;;;;7.60;4.28;;;;;;;;;;4910631;29;20122;-66
2021/12/14 06:38:31;;;;;;;7.47;4.38;;;;;;;;;;4912888;29;20051;-68
2021/12/14 06:41:18;;;;;;;7.15;4.57;;;;;;;;;;4908026;28;20043;-72
2021/12/14 06:44:04;;;;;;;8.63;5.00;;;;;;;;;;4872650;29;20053;-69
2021/12/14 06:46:49;;;;;;;8.50;5.15;;;;;;;;;;4862428;29;20049;-72
2021/12/14 06:49:35;;;;;;;10.25;5.05;;;;;;;;;;4829696;29;20436;-71
2021/12/14 06:52:20;;;;;;;40.35;27.42;;;;;;;;;;4845807;29;20497;-70
2021/12/14 06:55:06;;;;;;;16.38;9.65;;;;;;;;;;4856770;29;20096;-72
2021/12/14 06:57:51;;;;;;;8.93;5.18;;;;;;;;;;4889817;29;20590;-72
2021/12/14 07:00:39;;;;;;;10.07;6.00;;;;;;;;;;4863727;29;20467;-72
2021/12/14 07:03:34;;;;;;;11.98;6.50;;;;;;;;;;4850144;29;20110;-73
2021/12/14 07:06:22;;;;;;;9.23;6.00;;;;;;;;;;4891534;29;20059;-75
2021/12/14 07:09:09;;;;;;;10.43;5.82;;;;;;;;;;4861791;29;20032;-69
2021/12/14 07:11:59;;;;;;;9.85;6.40;;;;;;;;;;4911720;29;20076;-69
2021/12/14 07:14:51;;;;;;;8.25;5.07;;;;;;;;;;4859928;29;20072;-71
2021/12/14 07:17:43;;;;;;;10.98;6.65;;;;;;;;;;4868285;29;20025;-71
2021/12/14 07:20:34;;;;;;;10.50;6.35;;;;;;;;;;4885327;29;20570;-72
2021/12/14 07:23:23;;;;;;;10.00;5.88;;;;;;;;;;4954612;28;20035;-71
2021/12/14 07:26:10;;;;;;;10.45;6.95;;;;;;;;;;4941973;28;20146;-72
2021/12/14 07:28:57;;;;;;;11.07;6.25;;;;;;;;;;4964280;28;20505;-64
2021/12/14 07:31:42;;;;;;;14.13;8.52;;;;;;;;;;4955521;28;20054;-68
2021/12/14 07:34:28;;;;;;;16.50;9.45;;;;;;;;;;4936552;28;20078;-68
2021/12/14 07:37:13;;;;;;;13.38;8.05;;;;;;;;;;4933927;28;20028;-68
2021/12/14 07:39:58;;;;;;;13.77;7.97;;;;;;;;;;4954129;28;20118;-69
2021/12/14 07:42:44;;;;;;;13.70;7.15;;;;;;;;;;4967069;28;20549;-67
2021/12/14 07:45:29;;;;;;;12.07;7.70;;;;;;;;;;4921822;28;20272;-68
2021/12/14 07:48:15;;;;;;;10.98;7.03;;;;;;;;;;4930534;28;20440;-74
2021/12/14 07:51:01;;;;;;;12.07;7.50;;;;;;;;;;4914620;29;20051;-78
2021/12/14 07:53:49;;;;;;;11.00;6.95;;;;;;;;;;4916036;29;20455;-77
2021/12/14 07:56:40;;;;;;;29.27;18.73;;;;;;;;;;4904249;29;20054;-76
2021/12/14 07:59:25;;;;;;;29.75;21.15;;;;;;;;;;4919678;29;20094;-69
2021/12/14 08:02:19;;;;;;;12.57;8.07;;;;;;;;;;4921700;28;20058;-71
2021/12/14 08:05:12;;;;;;;11.75;7.45;;;;;;;;;;4918387;29;20040;-75
2021/12/14 08:08:00;;;;;;;13.57;8.15;;;;;;;;;;4887153;29;20043;-70
2021/12/14 08:10:49;;;;;;;16.20;9.50;;;;;;;;;;4908199;28;20039;-68
2021/12/14 08:13:43;;;;;;;14.70;8.80;;;;;;;;;;4915824;28;20066;-68
2021/12/14 08:16:37;;;;;;;17.08;9.10;;;;;;;;;;4945124;28;20047;-69
2021/12/14 08:19:25;;;;;;;16.77;8.15;;;;;;;;;;4947028;28;20593;-68
2021/12/14 08:22:15;;;;;;;12.70;8.25;;;;;;;;;;4881005;29;20040;-67
2021/12/14 08:25:01;;;;;;;16.75;9.38;;;;;;;;;;4924918;28;20371;-68
2021/12/14 08:27:46;;;;;;;18.80;9.43;;;;;;;;;;4946061;28;20015;-76
2021/12/14 08:30:32;;;;;;;13.13;7.60;;;;;;;;;;4946471;28;20031;-81
2021/12/14 08:33:19;;;;;;;12.15;6.45;;;;;;;;;;4959849;28;20027;-76
2021/12/14 08:36:06;;;;;;;11.68;6.85;;;;;;;;;;4962917;28;20037;-78
2021/12/14 08:39:07;;;;;;;11.80;6.90;;;;;;;;;;4979236;28;20050;-76
2021/12/14 08:42:03;;;;;;;11.07;6.18;;;;;;;;;;4964807;28;20042;-68
2021/12/14 08:44:53;;;;;;;8.85;5.65;;;;;;;;;;4953533;28;20137;-71
2021/12/14 08:47:39;;;;;;;;;;;;;;;;;;4968452;28;20049;-68
2021/12/14 08:50:25;;;;;;;10.80;6.30;;;;;;;;;;4965519;28;19924;-67
2021/12/14 08:53:11;;;;;;;9.68;6.18;;;;;;;;;;4981557;28;20034;-70
2021/12/14 08:55:58;;;;;;;10.13;6.15;;;;;;;;;;4942309;28;20045;-67
2021/12/14 08:58:43;;;;;;;9.75;6.07;;;;;;;;;;4962394;28;20042;-68
2021/12/14 09:01:29;;;;;;;12.73;5.80;;;;;;;;;;4960594;28;20513;-74
2021/12/14 09:04:20;;;;;;;9.68;6.25;;;;;;;;;;4961763;28;20038;-72
2021/12/14 09:07:08;;;;;;;9.95;5.80;;;;;;;;;;4970456;28;20468;-71
2021/12/14 09:09:53;;;;;;;7.63;5.20;;;;;;;;;;4951343;28;20380;-72
2021/12/14 09:12:41;;;;;;;9.55;5.63;;;;;;;;;;4968053;28;20038;-72
2021/12/14 09:15:29;;;;;;;10.60;5.63;;;;;;;;;;4951216;28;20038;-70
2021/12/14 09:18:15;;;;;;;19.08;8.82;;;;;;;;;;4939850;28;20038;-70
2021/12/14 09:21:11;;;;;;;47.80;30.73;;;;;;;;;;4971540;28;20497;-75
2021/12/14 09:23:58;;;;;;;11.73;7.68;;;;;;;;;;4950614;28;22567;-74
2021/12/14 09:26:46;;;;;;;9.82;5.55;;;;;;;;;;4965056;28;20065;-72
2021/12/14 09:29:33;;;;;;;10.68;6.30;;;;;;;;;;4955182;28;20034;-77
2021/12/14 09:32:24;;;;;;;8.27;5.78;;;;;;;;;;4950678;28;20066;-77
2021/12/14 09:35:14;;;;;;;13.68;6.65;;;;;;;;;;4966853;28;20042;-77
2021/12/14 09:38:00;;;;;;;10.65;6.97;;;;;;;;;;4955785;28;20070;-70
2021/12/14 09:40:48;;;;;;;11.10;6.55;;;;;;;;;;4952591;28;20026;-66
2021/12/14 09:43:34;;;;;;;10.63;6.20;;;;;;;;;;4947514;28;20026;-67
2021/12/14 09:46:19;;;;;;;11.65;5.93;;;;;;;;;;4961616;28;20490;-65
2021/12/14 09:49:06;;;;;;;10.25;6.03;;;;;;;;;;4943196;28;20045;-65
2021/12/14 09:51:53;;;;;;;10.40;6.30;;;;;;;;;;4942977;28;20070;-64
2021/12/14 09:54:40;;;;;;;10.38;5.43;;;;;;;;;;4953538;28;20023;-68
2021/12/14 09:57:28;;;;;;;10.07;5.55;;;;;;;;;;4922811;29;20111;-67
2021/12/14 10:00:18;;;;;;;9.98;6.70;;;;;;;;;;4928182;28;20504;-73
2021/12/14 10:03:04;;;;;;;23.90;6.47;;;;;;;;;;4928924;28;20542;-77
2021/12/14 10:05:53;;;;;;;11.32;6.72;;;;;;;;;;4937532;28;20042;-74
2021/12/14 10:08:42;;;;;;;11.55;5.25;;;;;;;;;;4960590;28;20019;-77
2021/12/14 10:11:43;;;;;;;10.05;5.53;;;;;;;;;;4942747;28;20635;-78
2021/12/14 10:14:31;;;;;;;7.32;5.00;;;;;;;;;;4959949;28;20098;-69
2021/12/14 10:17:18;;;;;;;8.32;4.43;;;;;;;;;;4943810;28;20039;-67
2021/12/14 10:20:04;;;;;;;8.13;4.47;;;;;;;;;;4932462;29;20031;-69
2021/12/14 10:22:51;;;;;;;7.47;4.32;;;;;;;;;;4945475;28;20101;-67
2021/12/14 10:25:37;;;;;;;6.97;4.60;;;;;;;;;;4965007;28;20038;-65
2021/12/14 10:28:25;;;;;;;9.23;4.60;;;;;;;;;;4961609;28;20060;-69
2021/12/14 10:31:12;;;;;;;11.02;5.00;;;;;;;;;;4954369;28;20129;-69
2021/12/14 10:34:00;;;;;;;7.32;4.72;;;;;;;;;;4962739;28;20434;-68
2021/12/14 10:36:51;;;;;;;7.70;4.55;;;;;;;;;;4959719;28;20615;-72
2021/12/14 10:42:39;;;;;;;6.93;4.18;;;;;;;;;;4951961;28;20249;-71
2021/12/14 10:43:12;;;;;;;6.45;4.05;;;;;;;;;;4966967;28;20043;-70
2021/12/14 10:46:06;;;;;;;8.57;4.72;;;;;;;;;;4921271;28;20042;-71
2021/12/14 10:48:52;;;;;;;9.30;4.95;;;;;;;;;;4933219;28;20118;-68
2021/12/14 10:51:39;;;;;;;10.20;5.50;;;;;;;;;;4938261;29;20483;-77
2021/12/14 10:54:26;;;;;;;10.15;5.45;;;;;;;;;;4959236;28;20065;-69
2021/12/14 10:57:13;;;;;;;9.13;5.07;;;;;;;;;;4954324;28;20030;-71
2021/12/14 10:59:58;;;;;;;10.75;5.95;;;;;;;;;;4955596;28;20034;-72
2021/12/14 11:02:44;;;;;;;11.50;6.78;;;;;;;;;;4963166;28;20113;-70
2021/12/14 11:05:31;;;;;;;14.50;6.13;;;;;;;;;;4971434;28;20036;-69
2021/12/14 11:11:31;;;;;;;11.35;6.28;;;;;;;;;;4971859;28;20030;-69
2021/12/14 11:14:19;;;;;;;19.60;13.98;;;;;;;;;;4959894;28;20035;-63
2021/12/14 11:20:15;;;;;;;11.50;5.68;;;;;;;;;;4915931;29;20043;-62
2021/12/14 11:23:06;;;;;;;9.35;5.38;;;;;;;;;;4918428;29;20538;-63
2021/12/14 11:25:52;;;;;;;12.60;5.68;;;;;;;;;;4919369;28;20082;-60
2021/12/14 11:28:45;;;;;;;14.13;6.82;;;;;;;;;;4959897;28;20034;-71
2021/12/14 11:31:35;;;;;;;10.40;6.68;;;;;;;;;;4956189;28;20061;-67
2021/12/14 11:34:31;;;;;;;12.57;6.47;;;;;;;;;;4958091;28;20414;-67
2021/12/14 11:37:20;;;;;;;8.35;5.60;;;;;;;;;;4959476;28;20043;-69
2021/12/14 11:40:09;;;;;;;8.00;5.03;;;;;;;;;;4983316;28;20074;-68
2021/12/14 11:43:08;;;;;;;10.05;7.03;;;;;;;;;;4975409;28;20063;-68
2021/12/14 11:45:53;;;;;;;10.15;6.40;;;;;;;;;;4982573;28;20531;-76
2021/12/14 11:48:40;;;;;;;11.23;7.10;;;;;;;;;;4982595;28;20169;-69
2021/12/14 11:51:26;;;;;;;17.23;11.02;;;;;;;;;;4963513;28;20042;-70
2021/12/14 11:54:14;;;;;;;11.73;7.45;;;;;;;;;;4942647;28;20081;-69
2021/12/14 11:56:59;;;;;;;11.52;7.40;;;;;;;;;;4956562;28;20042;-68
2021/12/14 11:59:44;;;;;;;11.27;7.07;;;;;;;;;;4949375;28;20122;-68
2021/12/14 12:02:30;;;;;;;15.07;7.35;;;;;;;;;;4931314;28;20032;-69
2021/12/14 12:05:30;;;;;;;16.08;6.80;;;;;;;;;;4896054;28;20043;-67
2021/12/14 12:11:20;;;;;;;10.05;6.68;;;;;;;;;;4952889;28;20090;-69
2021/12/14 12:14:35;;;;;;;12.45;7.22;;;;;;;;;;4966618;28;20038;-68
2021/12/14 12:17:23;;;;;;;10.68;7.10;;;;;;;;;;4892579;28;20043;-69
2021/12/14 12:20:27;;;;;;;11.15;6.50;;;;;;;;;;4932671;28;21299;-69
2021/12/14 12:23:17;;;;;;;16.67;10.75;;;;;;;;;;4891171;29;20038;-73
2021/12/14 12:26:09;;;;;;;18.70;10.43;;;;;;;;;;4911018;29;20296;-73
2021/12/14 12:28:58;;;;;;;11.82;7.63;;;;;;;;;;4952659;28;20057;-69
2021/12/14 12:31:47;;;;;;;13.80;7.78;;;;;;;;;;4941544;28;20394;-71
2021/12/14 12:34:35;;;;;;;18.65;7.72;;;;;;;;;;4905705;29;20511;-73
2021/12/14 12:37:42;;;;;;;10.25;6.13;;;;;;;;;;4914833;29;20028;-79
2021/12/14 12:40:33;;;;;;;11.20;6.93;;;;;;;;;;4913476;29;20094;-73
2021/12/14 12:43:24;;;;;;;12.13;6.72;;;;;;;;;;4912822;29;20051;-65
2021/12/14 12:46:11;;;;;;;15.35;7.85;;;;;;;;;;4920630;28;20736;-66
2021/12/14 12:48:58;;;;;;;10.88;7.20;;;;;;;;;;4960799;28;20203;-64
2021/12/14 12:51:46;;;;;;;11.77;6.78;;;;;;;;;;4953856;28;20505;-68
2021/12/14 12:54:35;;;;;;;16.17;8.02;;;;;;;;;;4936093;28;20127;-66
2021/12/14 12:57:23;;;;;;;14.40;7.85;;;;;;;;;;4939813;28;20130;-68
2021/12/14 13:00:12;;;;;;;16.33;8.50;;;;;;;;;;4933888;28;20386;-68
2021/12/14 13:02:57;;;;;;;14.80;8.07;;;;;;;;;;4943507;28;20062;-67
2021/12/14 13:05:55;;;;;;;14.38;8.27;;;;;;;;;;4928230;28;20521;-65
2021/12/14 13:08:44;;;;;;;13.32;8.40;;;;;;;;;;4957511;28;20066;-68
2021/12/14 13:11:31;;;;;;;14.90;9.03;;;;;;;;;;4947305;28;20037;-71
2021/12/14 13:14:17;;;;;;;18.52;8.82;;;;;;;;;;4947407;28;20462;-67
2021/12/14 13:17:04;;;;;;;15.75;9.45;;;;;;;;;;4948369;28;20089;-71
2021/12/14 13:19:57;;;;;;;15.73;9.23;;;;;;;;;;4932881;28;20042;-70
2021/12/14 13:22:46;;;;;;;16.48;9.18;;;;;;;;;;4938752;28;20441;-76
2021/12/14 13:25:36;;;;;;;18.88;9.60;;;;;;;;;;4930133;28;20542;-77
2021/12/14 13:28:34;;;;;;;19.08;9.82;;;;;;;;;;4944733;28;20058;-75
2021/12/14 13:31:28;;;;;;;15.30;8.80;;;;;;;;;;4957515;28;20062;-75
2021/12/14 13:34:15;;;;;;;16.83;9.77;;;;;;;;;;4940471;28;20031;-77
2021/12/14 13:37:01;;;;;;;15.73;9.48;;;;;;;;;;4928836;28;20381;-68
2021/12/14 13:39:47;;;;;;;13.90;9.27;;;;;;;;;;4928385;28;20063;-68
2021/12/14 13:42:53;;;;;;;14.40;9.02;;;;;;;;;;4922484;29;20082;-70
2021/12/14 13:45:43;;;;;;;15.05;9.65;;;;;;;;;;4930634;28;20031;-70
2021/12/14 13:48:33;;;;;;;16.70;10.30;;;;;;;;;;4933719;28;20110;-66
2021/12/14 13:51:20;;;;;;;17.40;10.45;;;;;;;;;;4919191;29;20039;-65
2021/12/14 13:54:05;;;;;;;16.35;9.88;;;;;;;;;;4876772;29;20040;-67
2021/12/14 13:56:52;;;;;;;18.98;11.50;;;;;;;;;;4907909;29;20031;-71
2021/12/14 13:59:37;;;;;;;15.57;9.50;;;;;;;;;;4926070;28;20043;-69
2021/12/14 14:02:22;;;;;;;13.27;8.88;;;;;;;;;;4940090;28;20382;-66
2021/12/14 14:05:09;;;;;;;16.98;9.20;;;;;;;;;;4935540;28;20266;-66
2021/12/14 14:07:57;;;;;;;9.85;7.72;;;;;;;;;;4925659;29;20031;-69
2021/12/14 14:10:44;;;;;;;12.80;7.93;;;;;;;;;;4877334;29;20036;-71
2021/12/14 14:13:33;;;;;;;12.85;8.80;;;;;;;;;;4892844;28;20506;-78
2021/12/14 14:16:18;;;;;;;12.05;8.15;;;;;;;;;;4919738;29;20036;-67
2021/12/14 14:19:07;;;;;;;13.30;8.55;;;;;;;;;;4919488;29;20094;-66
2021/12/14 14:21:54;;;;;;;14.20;10.05;;;;;;;;;;4910267;28;20498;-67
2021/12/14 14:24:41;;;;;;;16.92;11.65;;;;;;;;;;4947059;28;20045;-65
2021/12/14 14:27:30;;;;;;;14.82;10.35;;;;;;;;;;4940939;28;20100;-65
2021/12/14 14:30:22;;;;;;;15.10;10.23;;;;;;;;;;4903866;29;20119;-68
2021/12/14 14:33:12;;;;;;;13.55;9.32;;;;;;;;;;4959803;28;20110;-68
2021/12/14 14:36:06;;;;;;;14.93;9.70;;;;;;;;;;4968657;28;20042;-67
2021/12/14 14:38:52;;;;;;;14.98;9.45;;;;;;;;;;4928116;29;20114;-69
2021/12/14 14:41:39;;;;;;;19.15;11.35;;;;;;;;;;4929700;29;20028;-66
2021/12/14 14:44:31;;;;;;;16.60;10.80;;;;;;;;;;4907348;28;20043;-69
2021/12/14 14:47:19;;;;;;;16.10;10.15;;;;;;;;;;4918227;28;20090;-69
2021/12/14 14:50:07;;;;;;;15.65;11.13;;;;;;;;;;4902612;28;20023;-72
2021/12/14 14:53:01;;;;;;;15.48;10.57;;;;;;;;;;4908820;29;20046;-74
2021/12/14 14:55:51;;;;;;;15.93;10.55;;;;;;;;;;4909845;29;20043;-72
2021/12/14 14:58:37;;;;;;;14.55;10.70;;;;;;;;;;4912997;29;20390;-73
2021/12/14 15:01:24;;;;;;;20.15;11.95;;;;;;;;;;4940588;28;20598;-72
2021/12/14 15:04:09;;;;;;;19.02;13.00;;;;;;;;;;4937320;28;20067;-72
2021/12/14 15:06:55;;;;;;;20.65;13.00;;;;;;;;;;4933395;28;21247;-71
2021/12/14 15:09:42;;;;;;;21.33;14.30;;;;;;;;;;4917268;28;20145;-72
2021/12/14 15:12:27;;;;;;;20.33;13.20;;;;;;;;;;4944365;28;20130;-66
2021/12/14 15:15:14;;;;;;;19.23;12.25;;;;;;;;;;4944070;28;20347;-66
2021/12/14 15:17:59;;;;;;;22.58;13.98;;;;;;;;;;4943195;28;20074;-67
2021/12/14 15:20:44;;;;;;;32.13;19.25;;;;;;;;;;4926351;28;20035;-66
2021/12/14 15:23:30;;;;;;;23.65;14.13;;;;;;;;;;4935609;28;20134;-66
2021/12/14 15:26:15;;;;;;;23.35;14.02;;;;;;;;;;4924220;28;20047;-67
2021/12/14 15:29:19;;;;;;;21.00;13.70;;;;;;;;;;4921512;28;20113;-65
2021/12/14 15:32:16;;;;;;;22.08;13.32;;;;;;;;;;4936873;28;20471;-65
2021/12/14 15:35:07;;;;;;;22.60;15.40;;;;;;;;;;4915483;28;20038;-67
2021/12/14 15:37:58;;;;;;;21.00;13.15;;;;;;;;;;4937047;28;20039;-64
2021/12/14 15:40:46;;;;;;;19.15;13.15;;;;;;;;;;4930794;28;20031;-65
2021/12/14 15:43:33;;;;;;;21.08;13.63;;;;;;;;;;4917110;29;20047;-64
2021/12/14 15:46:29;;;;;;;19.98;13.15;;;;;;;;;;4897947;29;20136;-70
2021/12/14 15:49:17;;;;;;;21.08;13.57;;;;;;;;;;4937602;28;20034;-73
2021/12/14 15:52:19;;;;;;;18.83;13.75;;;;;;;;;;4940286;29;20128;-72
2021/12/14 15:55:05;;;;;;;22.33;15.10;;;;;;;;;;4912191;29;20491;-71
2021/12/14 15:57:50;;;;;;;20.45;13.35;;;;;;;;;;4916645;29;20039;-73
2021/12/14 16:00:36;;;;;;;24.35;15.20;;;;;;;;;;4921636;28;20090;-71
2021/12/14 16:03:22;;;;;;;22.02;14.23;;;;;;;;;;4923399;28;20036;-66
2021/12/14 16:06:08;;;;;;;33.67;21.25;;;;;;;;;;4937147;28;20053;-71
2021/12/14 16:08:53;;;;;;;26.17;16.65;;;;;;;;;;4907152;29;20413;-68
2021/12/14 16:17:46;;;;;;;24.50;14.68;;;;;;;;;;4935930;29;20047;-67
2021/12/14 16:20:34;;;;;;;24.85;16.08;;;;;;;;;;4913059;28;20054;-67
2021/12/14 16:23:22;;;;;;;27.27;15.35;;;;;;;;;;4928384;28;20044;-70
2021/12/14 16:26:12;;;;;;;26.30;14.65;;;;;;;;;;4919577;29;20032;-70
2021/12/14 16:29:02;;;;;;;22.48;14.40;;;;;;;;;;4864536;29;20032;-70
2021/12/14 16:31:47;;;;;;;21.33;13.50;;;;;;;;;;4917588;29;20479;-69
2021/12/14 16:34:34;;;;;;;21.17;13.50;;;;;;;;;;4912141;29;20365;-70
2021/12/14 16:37:21;;;;;;;22.77;13.02;;;;;;;;;;4870935;29;20029;-66
2021/12/14 16:40:07;;;;;;;21.73;14.05;;;;;;;;;;4911862;29;20040;-65
2021/12/14 16:42:52;;;;;;;23.70;14.35;;;;;;;;;;4915391;29;20044;-70
2021/12/14 16:45:38;;;;;;;22.33;12.77;;;;;;;;;;4931040;29;20031;-72
2021/12/14 16:48:29;;;;;;;21.95;13.30;;;;;;;;;;4916040;28;20030;-74
2021/12/14 16:51:14;;;;;;;21.13;12.20;;;;;;;;;;4918740;29;20121;-70
2021/12/14 16:54:09;;;;;;;19.52;12.02;;;;;;;;;;4937130;28;20070;-76
2021/12/14 16:56:58;;;;;;;17.10;10.48;;;;;;;;;;4913917;29;20120;-76
2021/12/14 16:59:45;;;;;;;15.45;10.13;;;;;;;;;;4901177;28;20065;-67
2021/12/14 17:02:32;;;;;;;14.07;9.25;;;;;;;;;;4931911;28;20118;-72
2021/12/14 17:05:23;;;;;;;16.02;10.63;;;;;;;;;;4913623;29;20475;-69
2021/12/14 17:08:11;;;;;;;14.50;8.80;;;;;;;;;;4919722;29;20043;-75
2021/12/14 17:10:59;;;;;;;11.68;8.02;;;;;;;;;;4903192;29;22712;-68
2021/12/14 17:13:51;;;;;;;19.83;12.95;;;;;;;;;;4925387;29;20039;-69
2021/12/14 17:16:41;;;;;;;24.35;17.08;;;;;;;;;;4908364;29;20039;-72
2021/12/14 17:19:26;;;;;;;14.20;9.10;;;;;;;;;;4899608;29;20108;-69
2021/12/14 17:22:14;;;;;;;15.07;9.95;;;;;;;;;;4911721;29;20047;-72